createdAt,value
2019-03-15T00:00:30.257Z,8.80
2019-03-15T00:03:00.717Z,8.90
2019-03-15T00:05:29.461Z,8.90
2019-03-15T00:07:58.254Z,8.90
2019-03-15T00:10:26.985Z,8.90
2019-03-15T00:12:55.843Z,8.90
2019-03-15T00:15:24.722Z,8.90
2019-03-15T00:17:53.458Z,8.80
2019-03-15T00:20:22.247Z,8.80
2019-03-15T00:22:52.583Z,8.80
2019-03-15T00:25:21.383Z,8.90
2019-03-15T00:27:50.185Z,8.90
2019-03-15T00:30:19.000Z,9.00
2019-03-15T00:32:48.126Z,9.00
2019-03-15T00:35:16.940Z,9.00
2019-03-15T00:37:45.717Z,9.10
2019-03-15T00:40:14.763Z,9.00
2019-03-15T00:42:43.553Z,8.90
2019-03-15T00:45:12.497Z,8.90
2019-03-15T00:47:41.240Z,8.90
2019-03-15T00:50:10.734Z,8.90
2019-03-15T00:52:39.510Z,8.90
2019-03-15T00:55:08.295Z,8.80
2019-03-15T00:57:37.074Z,8.70
2019-03-15T01:00:11.605Z,8.60
2019-03-15T01:02:40.347Z,8.70
2019-03-15T01:05:09.149Z,8.80
2019-03-15T01:07:38.013Z,8.80
2019-03-15T01:10:11.001Z,8.90
2019-03-15T01:12:39.794Z,8.80
2019-03-15T01:15:16.027Z,8.80
2019-03-15T01:17:44.814Z,8.80
2019-03-15T01:20:13.602Z,8.80
2019-03-15T01:22:42.395Z,8.80
2019-03-15T01:25:12.234Z,8.80
2019-03-15T01:27:41.052Z,8.60
2019-03-15T01:30:11.773Z,8.70
2019-03-15T01:32:40.558Z,8.60
2019-03-15T01:35:09.445Z,8.70
2019-03-15T01:37:38.343Z,8.70
2019-03-15T01:40:08.336Z,8.70
2019-03-15T01:42:37.124Z,8.80
2019-03-15T01:45:06.881Z,9.00
2019-03-15T01:47:35.673Z,9.10
2019-03-15T01:50:06.779Z,9.20
2019-03-15T01:52:35.618Z,9.30
2019-03-15T01:55:05.115Z,9.20
2019-03-15T01:57:33.845Z,9.30
2019-03-15T02:00:02.694Z,9.20
2019-03-15T02:02:32.564Z,9.20
2019-03-15T02:05:01.286Z,9.20
2019-03-15T02:07:30.149Z,9.20
2019-03-15T02:09:58.874Z,9.20
2019-03-15T02:12:27.674Z,9.20
2019-03-15T02:14:56.441Z,9.20
2019-03-15T02:17:25.118Z,9.00
2019-03-15T02:19:53.829Z,9.00
2019-03-15T02:22:22.669Z,9.10
2019-03-15T02:24:51.471Z,9.00
2019-03-15T02:27:20.259Z,9.20
2019-03-15T02:29:49.047Z,9.30
2019-03-15T02:32:17.906Z,9.20
2019-03-15T02:34:46.767Z,9.20
2019-03-15T02:37:15.618Z,9.20
2019-03-15T02:39:45.531Z,9.30
2019-03-15T02:42:14.888Z,9.40
2019-03-15T02:44:43.715Z,9.30
2019-03-15T02:47:12.500Z,9.30
2019-03-15T02:49:41.311Z,9.40
2019-03-15T02:52:10.088Z,9.50
2019-03-15T02:54:38.793Z,9.50
2019-03-15T02:57:08.689Z,9.60
2019-03-15T02:59:37.558Z,9.50
2019-03-15T03:02:06.341Z,9.60
2019-03-15T03:04:35.063Z,9.60
2019-03-15T03:07:03.829Z,9.50
2019-03-15T03:09:33.658Z,9.60
2019-03-15T03:12:02.962Z,9.70
2019-03-15T03:14:31.894Z,9.70
2019-03-15T03:17:00.694Z,9.60
2019-03-15T03:19:29.417Z,9.70
2019-03-15T03:21:58.322Z,9.80
2019-03-15T03:24:27.056Z,9.80
2019-03-15T03:26:55.875Z,9.80
2019-03-15T03:29:25.900Z,9.90
2019-03-15T03:31:55.668Z,10.00
2019-03-15T03:34:24.485Z,10.10
2019-03-15T03:36:57.591Z,10.00
2019-03-15T03:39:23.701Z,9.90
2019-03-15T03:41:53.598Z,9.90
2019-03-15T03:44:22.447Z,9.90
2019-03-15T03:46:51.248Z,9.90
2019-03-15T03:49:20.043Z,9.90
2019-03-15T03:51:48.879Z,9.80
2019-03-15T03:54:17.739Z,9.50
2019-03-15T03:56:46.551Z,9.50
2019-03-15T03:59:16.567Z,9.60
2019-03-15T04:01:45.355Z,9.60
2019-03-15T04:04:14.206Z,9.60
2019-03-15T04:06:43.088Z,9.60
2019-03-15T04:09:11.872Z,9.60
2019-03-15T04:11:54.266Z,9.50
2019-03-15T04:14:12.240Z,9.60
2019-03-15T04:16:40.967Z,9.60
2019-03-15T04:19:09.765Z,9.50
2019-03-15T04:21:38.685Z,9.50
2019-03-15T04:24:07.476Z,9.60
2019-03-15T04:26:36.365Z,9.30
2019-03-15T04:29:05.218Z,9.20
2019-03-15T04:31:33.934Z,9.20
2019-03-15T04:34:03.865Z,9.20
2019-03-15T04:36:32.683Z,9.20
2019-03-15T04:39:01.400Z,9.20
2019-03-15T04:41:30.299Z,9.30
2019-03-15T04:43:58.997Z,9.20
2019-03-15T04:46:27.708Z,9.30
2019-03-15T04:48:56.431Z,9.40
2019-03-15T04:51:25.186Z,9.40
2019-03-15T04:53:53.986Z,9.50
2019-03-15T04:56:22.702Z,9.60
2019-03-15T04:58:51.574Z,9.50
2019-03-15T05:01:20.361Z,9.50
2019-03-15T05:03:49.213Z,9.50
2019-03-15T05:06:19.534Z,9.40
2019-03-15T05:08:48.327Z,9.50
2019-03-15T05:11:17.181Z,9.50
2019-03-15T05:13:47.086Z,9.50
2019-03-15T05:16:16.177Z,9.50
2019-03-15T05:18:44.968Z,9.40
2019-03-15T05:21:16.743Z,9.40
2019-03-15T05:23:45.493Z,9.50
2019-03-15T05:26:14.281Z,9.50
2019-03-15T05:28:44.764Z,9.60
2019-03-15T05:31:13.564Z,9.70
2019-03-15T05:33:42.291Z,9.90
2019-03-15T05:36:11.082Z,10.00
2019-03-15T05:38:41.914Z,10.00
2019-03-15T05:41:10.819Z,10.00
2019-03-15T05:43:39.648Z,10.10
2019-03-15T05:46:08.585Z,10.20
2019-03-15T05:48:37.398Z,10.30
2019-03-15T05:51:06.229Z,10.30
2019-03-15T05:53:35.042Z,10.30
2019-03-15T05:56:03.840Z,10.20
2019-03-15T05:58:32.717Z,10.20
2019-03-15T06:01:01.523Z,10.30
2019-03-15T06:03:30.309Z,10.30
2019-03-15T06:05:59.191Z,10.30
2019-03-15T06:08:28.014Z,10.40
2019-03-15T06:10:58.109Z,10.40
2019-03-15T06:13:27.064Z,10.40
2019-03-15T06:15:55.895Z,10.40
2019-03-15T06:18:24.598Z,10.40
2019-03-15T06:20:53.479Z,10.50
2019-03-15T06:23:22.209Z,10.60
2019-03-15T06:25:50.933Z,10.60
2019-03-15T06:28:19.784Z,10.70
2019-03-15T06:30:48.507Z,10.70
2019-03-15T06:33:17.169Z,10.70
2019-03-15T06:35:46.584Z,10.70
2019-03-15T06:38:15.426Z,10.70
2019-03-15T06:40:44.209Z,10.70
2019-03-15T06:43:13.759Z,10.80
2019-03-15T06:45:42.716Z,10.90
2019-03-15T06:48:11.532Z,10.90
2019-03-15T06:50:40.406Z,10.90
2019-03-15T06:53:09.213Z,11.00
2019-03-15T06:55:38.063Z,11.00
2019-03-15T06:58:06.998Z,11.00
2019-03-15T07:00:35.819Z,11.10
2019-03-15T07:03:06.102Z,11.10
2019-03-15T07:05:34.953Z,11.10
2019-03-15T07:08:03.793Z,11.10
2019-03-15T07:10:32.602Z,11.10
2019-03-15T07:13:01.468Z,11.10
2019-03-15T07:15:30.269Z,11.20
2019-03-15T07:17:59.093Z,11.20
2019-03-15T07:20:27.979Z,11.20
2019-03-15T07:22:56.849Z,11.20
2019-03-15T07:25:25.764Z,11.20
2019-03-15T07:27:54.578Z,11.20
2019-03-15T07:30:23.469Z,11.30
2019-03-15T07:32:52.307Z,11.20
2019-03-15T07:35:21.125Z,11.30
2019-03-15T07:37:49.936Z,11.20
2019-03-15T07:40:28.888Z,11.40
2019-03-15T07:43:02.007Z,11.40
2019-03-15T07:45:28.364Z,11.40
2019-03-15T07:47:57.226Z,11.40
2019-03-15T07:50:25.989Z,11.40
2019-03-15T07:52:54.765Z,11.40
2019-03-15T07:55:23.697Z,11.50
2019-03-15T07:57:52.426Z,11.50
2019-03-15T08:00:21.151Z,11.50
2019-03-15T08:02:50.019Z,11.60
2019-03-15T08:05:18.823Z,11.70
2019-03-15T08:07:50.773Z,11.70
2019-03-15T08:10:19.746Z,11.80
2019-03-15T08:12:49.980Z,11.70
2019-03-15T08:15:18.873Z,11.70
2019-03-15T08:17:50.946Z,11.80
2019-03-15T08:20:19.734Z,11.70
2019-03-15T08:22:51.848Z,11.80
2019-03-15T08:25:21.224Z,11.90
2019-03-15T08:27:50.082Z,12.00
2019-03-15T08:30:19.495Z,11.80
2019-03-15T08:32:49.194Z,11.80
2019-03-15T08:35:17.997Z,11.80
2019-03-15T08:37:46.733Z,11.80
2019-03-15T08:40:15.932Z,11.90
2019-03-15T08:43:02.732Z,11.80
2019-03-15T08:45:31.626Z,11.70
2019-03-15T08:48:00.663Z,11.80
2019-03-15T08:50:41.623Z,11.70
2019-03-15T08:53:12.915Z,11.70
2019-03-15T08:55:42.001Z,11.70
2019-03-15T08:58:15.343Z,11.80
2019-03-15T09:00:41.317Z,11.80
2019-03-15T09:03:10.313Z,11.80
2019-03-15T09:05:39.193Z,11.80
2019-03-15T09:08:08.005Z,11.90
2019-03-15T09:10:37.584Z,11.90
2019-03-15T09:13:06.460Z,11.90
2019-03-15T09:15:35.432Z,11.90
2019-03-15T09:18:06.111Z,12.00
2019-03-15T09:20:35.009Z,11.90
2019-03-15T09:23:03.905Z,12.00
2019-03-15T09:25:32.816Z,12.00
2019-03-15T09:28:01.706Z,12.00
2019-03-15T09:30:30.550Z,11.90
2019-03-15T09:33:02.943Z,12.00
2019-03-15T09:35:31.842Z,12.00
2019-03-15T09:38:00.727Z,12.00
2019-03-15T09:40:29.660Z,12.00
2019-03-15T09:42:59.994Z,12.00
2019-03-15T09:45:30.835Z,12.00
2019-03-15T09:47:59.994Z,12.00
2019-03-15T09:50:36.017Z,12.00
2019-03-15T09:52:59.345Z,12.00
2019-03-15T09:55:33.090Z,12.00
2019-03-15T09:57:58.835Z,12.00
2019-03-15T10:00:27.601Z,12.00
2019-03-15T10:02:57.593Z,12.00
2019-03-15T10:05:26.482Z,12.20
2019-03-15T10:07:55.286Z,12.10
2019-03-15T10:10:24.177Z,12.10
2019-03-15T10:13:05.042Z,12.20
2019-03-15T10:15:26.222Z,12.20
2019-03-15T10:17:54.076Z,12.30
2019-03-15T10:20:22.878Z,12.20
2019-03-15T10:23:05.495Z,12.30
2019-03-15T10:25:22.299Z,12.30
2019-03-15T10:27:51.099Z,12.30
2019-03-15T10:30:20.918Z,12.30
2019-03-15T10:32:50.231Z,12.30
2019-03-15T10:35:19.038Z,12.30
2019-03-15T10:37:52.301Z,12.40
2019-03-15T10:40:27.242Z,12.40
2019-03-15T10:43:00.666Z,12.40
2019-03-15T10:45:28.623Z,12.40
2019-03-15T10:47:57.539Z,12.40
2019-03-15T10:50:27.042Z,12.50
2019-03-15T10:52:56.891Z,12.50
2019-03-15T10:55:25.828Z,12.50
2019-03-15T10:57:54.727Z,12.50
2019-03-15T11:00:23.686Z,12.60
2019-03-15T11:02:52.751Z,12.70
2019-03-15T11:05:22.150Z,12.60
2019-03-15T11:07:51.854Z,12.70
2019-03-15T11:10:39.442Z,12.70
2019-03-15T11:13:08.330Z,12.60
2019-03-15T11:15:37.110Z,12.60
2019-03-15T11:18:37.460Z,12.60
2019-03-15T11:21:07.403Z,12.70
2019-03-15T11:23:38.305Z,12.70
2019-03-15T11:26:13.480Z,12.70
2019-03-15T11:28:41.679Z,12.70
2019-03-15T11:31:10.706Z,12.80
2019-03-15T11:33:39.541Z,12.80
2019-03-15T11:36:12.367Z,12.90
2019-03-15T11:38:41.677Z,12.90
2019-03-15T11:41:10.492Z,13.00
2019-03-15T11:43:39.506Z,13.20
2019-03-15T11:46:08.349Z,13.20
2019-03-15T11:48:37.189Z,13.20
2019-03-15T11:51:05.972Z,13.20
2019-03-15T11:53:34.808Z,13.30
2019-03-15T11:56:03.619Z,13.30
2019-03-15T11:58:32.654Z,13.40
2019-03-15T12:01:02.204Z,13.30
2019-03-15T12:03:31.008Z,13.30
2019-03-15T12:06:00.498Z,13.30
2019-03-15T12:08:30.702Z,13.30
2019-03-15T12:11:01.330Z,13.30
2019-03-15T12:13:31.139Z,13.40
2019-03-15T12:16:01.359Z,13.40
2019-03-15T12:18:30.228Z,13.30
2019-03-15T12:20:59.355Z,13.40
2019-03-15T12:23:28.242Z,13.50
2019-03-15T12:25:58.607Z,13.50
2019-03-15T12:28:27.574Z,13.50
2019-03-15T12:30:57.604Z,13.50
2019-03-15T12:33:26.487Z,13.50
2019-03-15T12:35:55.354Z,13.40
2019-03-15T12:38:24.266Z,13.40
2019-03-15T12:40:53.093Z,13.50
2019-03-15T12:43:21.807Z,13.60
2019-03-15T12:45:50.655Z,13.60
2019-03-15T12:48:20.189Z,13.60
2019-03-15T12:50:49.056Z,13.70
2019-03-15T12:53:18.608Z,13.80
2019-03-15T12:55:48.051Z,13.70
2019-03-15T12:58:16.871Z,13.70
2019-03-15T13:00:48.589Z,13.60
2019-03-15T13:03:17.308Z,13.60
2019-03-15T13:05:55.301Z,13.50
2019-03-15T13:08:24.214Z,13.50
2019-03-15T13:10:58.473Z,13.50
2019-03-15T13:13:35.770Z,13.40
2019-03-15T13:16:04.698Z,13.40
2019-03-15T13:18:33.564Z,13.20
2019-03-15T13:21:02.438Z,13.30
2019-03-15T13:23:31.217Z,13.20
2019-03-15T13:26:00.123Z,13.10
2019-03-15T13:28:28.920Z,13.10
2019-03-15T13:30:57.856Z,13.10
2019-03-15T13:33:26.737Z,13.20
2019-03-15T13:35:55.645Z,13.30
2019-03-15T13:38:24.622Z,13.30
2019-03-15T13:40:53.514Z,13.20
2019-03-15T13:43:22.392Z,13.10
2019-03-15T13:45:51.350Z,13.00
2019-03-15T13:48:20.863Z,13.20
2019-03-15T13:50:49.701Z,13.10
2019-03-15T13:53:18.556Z,13.10
2019-03-15T13:55:48.462Z,13.10
2019-03-15T13:58:17.273Z,13.10
2019-03-15T14:00:46.269Z,13.00
2019-03-15T14:03:15.110Z,13.00
2019-03-15T14:05:43.990Z,12.90
2019-03-15T14:08:13.026Z,12.80
2019-03-15T14:10:49.191Z,12.80
2019-03-15T14:13:12.378Z,12.90
2019-03-15T14:15:41.321Z,12.90
2019-03-15T14:18:10.620Z,12.90
2019-03-15T14:20:39.485Z,13.00
2019-03-15T14:23:08.360Z,13.00
2019-03-15T14:25:37.230Z,13.10
2019-03-15T14:28:06.032Z,13.20
2019-03-15T14:30:35.010Z,13.20
2019-03-15T14:33:03.914Z,13.20
2019-03-15T14:35:32.846Z,13.10
2019-03-15T14:38:01.965Z,13.00
2019-03-15T14:40:31.000Z,13.00
2019-03-15T14:43:00.142Z,13.00
2019-03-15T14:45:29.214Z,12.90
2019-03-15T14:47:58.024Z,12.80
2019-03-15T14:50:26.910Z,12.70
2019-03-15T14:52:55.857Z,12.70
2019-03-15T14:55:25.628Z,12.60
2019-03-15T14:57:54.946Z,12.60
2019-03-15T15:00:23.812Z,12.60
2019-03-15T15:02:52.645Z,12.50
2019-03-15T15:05:22.137Z,12.50
2019-03-15T15:07:51.169Z,12.50
2019-03-15T15:10:20.154Z,12.50
2019-03-15T15:12:49.668Z,12.40
2019-03-15T15:15:19.736Z,12.40
2019-03-15T15:17:48.768Z,12.30
2019-03-15T15:20:17.553Z,12.20
2019-03-15T15:22:46.400Z,12.20
2019-03-15T15:25:19.006Z,12.20
2019-03-15T15:27:47.948Z,12.10
2019-03-15T15:30:17.915Z,12.10
2019-03-15T15:32:50.427Z,12.10
2019-03-15T15:35:20.382Z,12.10
2019-03-15T15:37:49.444Z,12.10
2019-03-15T15:40:21.211Z,12.10
2019-03-15T15:42:50.070Z,12.10
2019-03-15T15:45:18.871Z,12.20
2019-03-15T15:47:50.172Z,12.10
2019-03-15T15:50:19.137Z,12.10
2019-03-15T15:52:48.005Z,12.20
2019-03-15T15:55:20.017Z,12.30
2019-03-15T15:57:48.901Z,12.20
2019-03-15T16:00:18.497Z,12.10
2019-03-15T16:02:47.279Z,12.20
2019-03-15T16:05:16.234Z,12.10
2019-03-15T16:07:45.490Z,12.10
2019-03-15T16:10:17.724Z,12.10
2019-03-15T16:12:45.529Z,12.10
2019-03-15T16:15:21.949Z,12.10
2019-03-15T16:17:50.862Z,12.10
2019-03-15T16:20:19.709Z,12.00
2019-03-15T16:22:48.757Z,12.10
2019-03-15T16:25:17.570Z,12.00
2019-03-15T16:27:46.398Z,12.00
2019-03-15T16:30:21.961Z,12.10
2019-03-15T16:32:50.902Z,12.20
2019-03-15T16:35:19.814Z,12.20
2019-03-15T16:37:48.891Z,12.10
2019-03-15T16:40:17.741Z,12.20
2019-03-15T16:42:47.540Z,12.20
2019-03-15T16:45:30.333Z,12.20
2019-03-15T16:47:58.994Z,12.20
2019-03-15T16:50:27.779Z,12.20
2019-03-15T16:52:56.760Z,12.10
2019-03-15T16:55:25.583Z,12.10
2019-03-15T16:57:54.909Z,12.10
2019-03-15T17:00:23.805Z,12.00
2019-03-15T17:02:52.590Z,12.10
2019-03-15T17:05:22.875Z,12.10
2019-03-15T17:10:36.104Z,12.20
2019-03-15T17:13:04.993Z,12.10
2019-03-15T17:15:33.907Z,12.10
2019-03-15T17:18:02.811Z,12.10
2019-03-15T17:20:34.885Z,12.20
2019-03-15T17:23:03.712Z,12.10
2019-03-15T17:25:32.581Z,12.10
2019-03-15T17:28:01.465Z,12.00
2019-03-15T17:30:30.263Z,12.00
2019-03-15T17:32:59.317Z,12.10
2019-03-15T17:35:28.091Z,12.00
2019-03-15T17:37:56.857Z,12.00
2019-03-15T17:40:25.681Z,12.00
2019-03-15T17:42:54.532Z,12.10
2019-03-15T17:45:23.433Z,12.10
2019-03-15T17:47:52.210Z,12.00
2019-03-15T17:50:23.293Z,12.10
2019-03-15T17:52:52.743Z,12.10
2019-03-15T17:55:21.633Z,12.20
2019-03-15T17:57:50.529Z,12.10
2019-03-15T18:00:32.463Z,12.10
2019-03-15T18:03:01.366Z,12.10
2019-03-15T18:05:30.264Z,12.10
2019-03-15T18:07:59.056Z,12.10
2019-03-15T18:10:27.991Z,12.10
2019-03-15T18:12:58.964Z,12.10
2019-03-15T18:15:30.378Z,12.10
2019-03-15T18:18:00.189Z,12.10
2019-03-15T18:20:29.849Z,12.20
2019-03-15T18:22:58.840Z,12.30
2019-03-15T18:25:28.878Z,12.40
2019-03-15T18:27:57.717Z,12.30
2019-03-15T18:30:26.583Z,12.30
2019-03-15T18:32:55.473Z,12.30
2019-03-15T18:35:33.487Z,12.30
2019-03-15T18:37:54.884Z,12.20
2019-03-15T18:40:23.758Z,12.30
2019-03-15T18:42:52.613Z,12.30
2019-03-15T18:45:21.574Z,12.30
2019-03-15T18:47:50.392Z,12.30
2019-03-15T18:50:24.914Z,12.30
2019-03-15T18:52:53.811Z,12.30
2019-03-15T18:55:22.658Z,12.30
2019-03-15T18:57:51.533Z,12.30
2019-03-15T19:00:24.644Z,12.20
2019-03-15T19:02:54.126Z,12.20
2019-03-15T19:05:22.933Z,12.20
2019-03-15T19:07:51.810Z,12.20
2019-03-15T19:10:20.809Z,12.20
2019-03-15T19:12:49.605Z,12.10
2019-03-15T19:15:22.055Z,12.10
2019-03-15T19:17:51.060Z,12.10
2019-03-15T19:20:19.998Z,12.10
2019-03-15T19:22:48.897Z,12.10
2019-03-15T19:25:17.777Z,12.20
2019-03-15T19:27:46.602Z,12.20
2019-03-15T19:30:16.928Z,12.30
2019-03-15T19:32:45.801Z,12.20
2019-03-15T19:35:14.658Z,12.20
2019-03-15T19:37:43.511Z,12.30
2019-03-15T19:40:18.490Z,12.30
2019-03-15T19:42:47.342Z,12.30
2019-03-15T19:45:16.943Z,12.30
2019-03-15T19:47:45.840Z,12.40
2019-03-15T19:50:22.288Z,12.30
2019-03-15T19:52:51.123Z,12.20
2019-03-15T19:55:19.953Z,12.30
2019-03-15T19:57:48.835Z,12.30
2019-03-15T20:00:22.464Z,12.30
2019-03-15T20:02:51.293Z,12.20
2019-03-15T20:05:20.082Z,12.30
2019-03-15T20:07:49.193Z,12.20
2019-03-15T20:10:19.663Z,12.30
2019-03-15T20:12:48.542Z,12.30
2019-03-15T20:15:17.574Z,12.30
2019-03-15T20:17:47.986Z,12.30
2019-03-15T20:20:19.652Z,12.20
2019-03-15T20:23:02.780Z,12.10
2019-03-15T20:25:31.526Z,12.20
2019-03-15T20:28:03.907Z,12.20
2019-03-15T20:30:31.418Z,12.20
2019-03-15T20:33:00.692Z,12.30
2019-03-15T20:35:29.651Z,12.30
2019-03-15T20:37:58.550Z,12.20
2019-03-15T20:40:28.954Z,12.20
2019-03-15T20:45:48.719Z,12.20
2019-03-15T20:48:18.887Z,12.30
2019-03-15T20:50:51.380Z,12.30
2019-03-15T20:53:20.323Z,12.30
2019-03-15T20:55:49.346Z,12.40
2019-03-15T20:58:22.171Z,12.40
2019-03-15T21:00:50.620Z,12.30
2019-03-15T21:03:19.491Z,12.20
2019-03-15T21:05:49.679Z,12.20
2019-03-15T21:08:20.154Z,12.30
2019-03-15T21:10:51.555Z,12.40
2019-03-15T21:13:21.056Z,12.30
2019-03-15T21:15:50.994Z,12.20
2019-03-15T21:18:19.946Z,12.10
2019-03-15T21:20:48.917Z,12.10
2019-03-15T21:23:17.895Z,12.10
2019-03-15T21:25:46.794Z,12.10
2019-03-15T21:28:15.828Z,12.10
2019-03-15T21:30:48.608Z,12.10
2019-03-15T21:33:16.498Z,12.10
2019-03-15T21:35:45.369Z,12.20
2019-03-15T21:38:14.259Z,12.20
2019-03-15T21:40:43.067Z,12.30
2019-03-15T21:43:11.883Z,12.30
2019-03-15T21:45:40.839Z,12.30
2019-03-15T21:48:09.643Z,12.20
2019-03-15T21:50:38.541Z,12.20
2019-03-15T21:53:07.860Z,12.20
2019-03-15T21:55:36.778Z,12.30
2019-03-15T21:58:26.556Z,12.30
2019-03-15T22:07:14.218Z,12.30
2019-03-15T22:09:57.639Z,12.20
2019-03-15T22:12:30.496Z,12.30
2019-03-15T22:17:51.463Z,12.10
2019-03-15T22:20:20.771Z,12.00
2019-03-15T22:22:52.887Z,12.10
2019-03-15T22:25:23.380Z,12.00
2019-03-15T22:27:53.615Z,12.00
2019-03-15T22:30:25.300Z,12.00
2019-03-15T22:32:54.314Z,12.00
2019-03-15T22:35:23.092Z,12.20
2019-03-15T22:37:52.011Z,12.20
2019-03-15T22:40:23.298Z,12.10
2019-03-15T22:42:53.542Z,12.20
2019-03-15T22:45:24.749Z,12.20
2019-03-15T22:47:54.133Z,12.20
2019-03-15T22:50:29.070Z,12.00
2019-03-15T22:52:58.085Z,11.90
2019-03-15T22:55:28.808Z,11.80
2019-03-15T22:58:00.297Z,11.80
2019-03-15T23:00:30.930Z,11.80
2019-03-15T23:03:00.126Z,11.50
2019-03-15T23:05:29.589Z,11.50
2019-03-15T23:07:58.426Z,11.50
2019-03-15T23:10:27.320Z,11.50
2019-03-15T23:12:56.162Z,11.30
2019-03-15T23:15:26.535Z,11.30
2019-03-15T23:17:56.461Z,11.30
2019-03-15T23:20:26.637Z,11.20
2019-03-15T23:22:55.381Z,11.20
2019-03-15T23:25:24.213Z,11.30
2019-03-15T23:27:53.032Z,11.40
2019-03-15T23:30:21.841Z,11.40
2019-03-15T23:32:51.319Z,11.30
2019-03-15T23:35:20.367Z,11.20
2019-03-15T23:37:49.165Z,11.10
2019-03-15T23:40:19.271Z,11.00
2019-03-15T23:42:48.222Z,11.00
2019-03-15T23:45:17.032Z,11.10
2019-03-15T23:47:45.849Z,11.10
2019-03-15T23:50:15.999Z,11.10
2019-03-15T23:52:44.829Z,11.00
2019-03-15T23:55:13.645Z,11.00
2019-03-15T23:57:42.574Z,10.90
